sensor_id;sensor_type;location;lat;lon;timestamp;P1;durP1;ratioP1;P2;durP2;ratioP2
7971;SDS011;4031;49.758;6.120;2023-03-01T00:01:14;7.25;;;6.55;;
7971;SDS011;4031;49.758;6.120;2023-03-01T00:03:46;11.77;;;7.10;;
7971;SDS011;4031;49.758;6.120;2023-03-01T00:06:12;6.83;;;6.10;;
7971;SDS011;4031;49.758;6.120;2023-03-01T00:08:38;12.23;;;7.70;;
7971;SDS011;4031;49.758;6.120;2023-03-01T00:11:08;9.52;;;6.55;;
7971;SDS011;4031;49.758;6.120;2023-03-01T00:13:43;7.13;;;6.07;;
7971;SDS011;4031;49.758;6.120;2023-03-01T00:16:11;11.82;;;7.28;;
7971;SDS011;4031;49.758;6.120;2023-03-01T00:18:44;7.38;;;6.25;;
7971;SDS011;4031;49.758;6.120;2023-03-01T00:21:09;8.03;;;6.47;;
7971;SDS011;4031;49.758;6.120;2023-03-01T00:23:37;6.97;;;4.82;;
7971;SDS011;4031;49.758;6.120;2023-03-01T00:26:06;7.03;;;5.97;;
7971;SDS011;4031;49.758;6.120;2023-03-01T00:28:36;5.95;;;5.45;;
7971;SDS011;4031;49.758;6.120;2023-03-01T00:31:06;7.60;;;5.70;;
7971;SDS011;4031;49.758;6.120;2023-03-01T00:33:34;29.42;;;16.70;;
7971;SDS011;4031;49.758;6.120;2023-03-01T00:36:00;7.90;;;7.10;;
7971;SDS011;4031;49.758;6.120;2023-03-01T00:38:26;9.00;;;4.63;;
7971;SDS011;4031;49.758;6.120;2023-03-01T00:40:52;9.50;;;5.13;;
7971;SDS011;4031;49.758;6.120;2023-03-01T00:43:18;8.87;;;6.10;;
7971;SDS011;4031;49.758;6.120;2023-03-01T00:45:44;6.03;;;5.15;;
7971;SDS011;4031;49.758;6.120;2023-03-01T00:48:10;8.93;;;5.33;;
7971;SDS011;4031;49.758;6.120;2023-03-01T00:50:35;7.33;;;4.80;;
7971;SDS011;4031;49.758;6.120;2023-03-01T00:53:01;8.57;;;5.90;;
7971;SDS011;4031;49.758;6.120;2023-03-01T00:55:27;7.50;;;5.87;;
7971;SDS011;4031;49.758;6.120;2023-03-01T00:57:53;4.90;;;4.27;;
7971;SDS011;4031;49.758;6.120;2023-03-01T01:00:19;9.07;;;5.20;;
7971;SDS011;4031;49.758;6.120;2023-03-01T01:02:45;3.90;;;3.60;;
7971;SDS011;4031;49.758;6.120;2023-03-01T01:05:12;5.70;;;4.82;;
7971;SDS011;4031;49.758;6.120;2023-03-01T01:07:38;5.93;;;4.07;;
7971;SDS011;4031;49.758;6.120;2023-03-01T01:10:04;6.10;;;3.40;;
7971;SDS011;4031;49.758;6.120;2023-03-01T01:12:31;8.45;;;6.22;;
7971;SDS011;4031;49.758;6.120;2023-03-01T01:14:58;4.40;;;3.88;;
7971;SDS011;4031;49.758;6.120;2023-03-01T01:17:24;6.70;;;3.78;;
7971;SDS011;4031;49.758;6.120;2023-03-01T01:19:49;5.13;;;4.57;;
7971;SDS011;4031;49.758;6.120;2023-03-01T01:22:15;4.00;;;3.43;;
7971;SDS011;4031;49.758;6.120;2023-03-01T01:24:41;4.33;;;3.27;;
7971;SDS011;4031;49.758;6.120;2023-03-01T01:27:07;5.70;;;4.27;;
7971;SDS011;4031;49.758;6.120;2023-03-01T01:29:32;5.27;;;4.67;;
7971;SDS011;4031;49.758;6.120;2023-03-01T01:31:58;13.23;;;4.70;;
7971;SDS011;4031;49.758;6.120;2023-03-01T01:34:24;6.57;;;5.23;;
7971;SDS011;4031;49.758;6.120;2023-03-01T01:36:50;5.40;;;4.67;;
7971;SDS011;4031;49.758;6.120;2023-03-01T01:39:19;6.03;;;5.53;;
7971;SDS011;4031;49.758;6.120;2023-03-01T01:41:46;4.97;;;4.57;;
7971;SDS011;4031;49.758;6.120;2023-03-01T01:49:53;8.75;;;5.85;;
7971;SDS011;4031;49.758;6.120;2023-03-01T01:55:01;8.35;;;6.35;;
7971;SDS011;4031;49.758;6.120;2023-03-01T01:57:36;10.80;;;6.35;;
7971;SDS011;4031;49.758;6.120;2023-03-01T02:00:10;7.60;;;6.55;;
7971;SDS011;4031;49.758;6.120;2023-03-01T02:02:50;9.07;;;6.05;;
7971;SDS011;4031;49.758;6.120;2023-03-01T02:05:26;8.38;;;6.53;;
7971;SDS011;4031;49.758;6.120;2023-03-01T02:08:03;11.15;;;7.18;;
7971;SDS011;4031;49.758;6.120;2023-03-01T02:10:29;6.32;;;5.28;;
7971;SDS011;4031;49.758;6.120;2023-03-01T02:12:58;9.38;;;6.05;;
7971;SDS011;4031;49.758;6.120;2023-03-01T02:15:26;6.93;;;5.57;;
7971;SDS011;4031;49.758;6.120;2023-03-01T02:17:52;13.33;;;8.03;;
7971;SDS011;4031;49.758;6.120;2023-03-01T02:23:20;9.25;;;6.55;;
7971;SDS011;4031;49.758;6.120;2023-03-01T02:26:00;9.30;;;5.73;;
7971;SDS011;4031;49.758;6.120;2023-03-01T02:28:37;9.07;;;6.22;;
7971;SDS011;4031;49.758;6.120;2023-03-01T02:31:07;7.57;;;5.40;;
7971;SDS011;4031;49.758;6.120;2023-03-01T02:33:53;8.63;;;6.63;;
7971;SDS011;4031;49.758;6.120;2023-03-01T02:36:23;13.77;;;7.30;;
7971;SDS011;4031;49.758;6.120;2023-03-01T02:38:57;11.85;;;6.82;;
7971;SDS011;4031;49.758;6.120;2023-03-01T02:41:24;6.95;;;5.90;;
7971;SDS011;4031;49.758;6.120;2023-03-01T02:43:53;9.07;;;6.97;;
7971;SDS011;4031;49.758;6.120;2023-03-01T02:46:21;7.57;;;6.22;;
7971;SDS011;4031;49.758;6.120;2023-03-01T02:48:50;10.15;;;5.90;;
7971;SDS011;4031;49.758;6.120;2023-03-01T02:56:54;7.85;;;5.47;;
7971;SDS011;4031;49.758;6.120;2023-03-01T02:59:21;6.65;;;5.70;;
7971;SDS011;4031;49.758;6.120;2023-03-01T03:01:49;6.85;;;5.22;;
7971;SDS011;4031;49.758;6.120;2023-03-01T03:04:17;8.20;;;6.50;;
7971;SDS011;4031;49.758;6.120;2023-03-01T03:06:46;11.82;;;6.72;;
7971;SDS011;4031;49.758;6.120;2023-03-01T03:09:14;9.38;;;5.50;;
7971;SDS011;4031;49.758;6.120;2023-03-01T03:11:41;6.53;;;5.45;;
7971;SDS011;4031;49.758;6.120;2023-03-01T03:14:11;6.55;;;5.82;;
7971;SDS011;4031;49.758;6.120;2023-03-01T03:16:40;9.40;;;6.60;;
7971;SDS011;4031;49.758;6.120;2023-03-01T03:19:08;8.43;;;7.32;;
7971;SDS011;4031;49.758;6.120;2023-03-01T03:21:34;11.07;;;6.65;;
7971;SDS011;4031;49.758;6.120;2023-03-01T03:24:00;7.85;;;4.40;;
7971;SDS011;4031;49.758;6.120;2023-03-01T03:26:26;6.97;;;5.30;;
7971;SDS011;4031;49.758;6.120;2023-03-01T03:28:52;10.63;;;5.87;;
7971;SDS011;4031;49.758;6.120;2023-03-01T03:31:18;8.37;;;5.20;;
7971;SDS011;4031;49.758;6.120;2023-03-01T03:33:43;4.93;;;4.43;;
7971;SDS011;4031;49.758;6.120;2023-03-01T03:36:09;4.93;;;3.57;;
7971;SDS011;4031;49.758;6.120;2023-03-01T03:38:42;6.20;;;3.72;;
7971;SDS011;4031;49.758;6.120;2023-03-01T03:41:10;5.97;;;3.35;;
7971;SDS011;4031;49.758;6.120;2023-03-01T03:43:37;3.45;;;3.15;;
7971;SDS011;4031;49.758;6.120;2023-03-01T03:46:05;8.05;;;3.75;;
7971;SDS011;4031;49.758;6.120;2023-03-01T03:48:50;8.90;;;4.75;;
7971;SDS011;4031;49.758;6.120;2023-03-01T03:51:16;7.25;;;5.93;;
7971;SDS011;4031;49.758;6.120;2023-03-01T03:53:43;5.00;;;3.33;;
7971;SDS011;4031;49.758;6.120;2023-03-01T03:56:10;10.55;;;6.68;;
7971;SDS011;4031;49.758;6.120;2023-03-01T03:58:37;2.50;;;2.05;;
7971;SDS011;4031;49.758;6.120;2023-03-01T04:01:03;2.03;;;1.83;;
7971;SDS011;4031;49.758;6.120;2023-03-01T04:03:29;4.18;;;3.78;;
7971;SDS011;4031;49.758;6.120;2023-03-01T04:05:59;4.90;;;3.63;;
7971;SDS011;4031;49.758;6.120;2023-03-01T04:08:27;6.55;;;4.65;;
7971;SDS011;4031;49.758;6.120;2023-03-01T04:10:56;6.28;;;5.53;;
7971;SDS011;4031;49.758;6.120;2023-03-01T04:13:47;5.25;;;4.20;;
7971;SDS011;4031;49.758;6.120;2023-03-01T04:16:13;9.83;;;4.40;;
7971;SDS011;4031;49.758;6.120;2023-03-01T04:18:39;5.23;;;4.80;;
7971;SDS011;4031;49.758;6.120;2023-03-01T04:21:04;10.57;;;6.17;;
7971;SDS011;4031;49.758;6.120;2023-03-01T04:23:30;9.10;;;6.47;;
7971;SDS011;4031;49.758;6.120;2023-03-01T04:25:56;8.07;;;5.87;;
7971;SDS011;4031;49.758;6.120;2023-03-01T04:28:30;8.05;;;6.80;;
7971;SDS011;4031;49.758;6.120;2023-03-01T04:31:01;7.35;;;5.28;;
7971;SDS011;4031;49.758;6.120;2023-03-01T04:33:38;9.85;;;6.10;;
7971;SDS011;4031;49.758;6.120;2023-03-01T04:36:05;5.22;;;4.72;;
7971;SDS011;4031;49.758;6.120;2023-03-01T04:38:33;7.57;;;6.93;;
7971;SDS011;4031;49.758;6.120;2023-03-01T04:41:03;5.30;;;2.90;;
7971;SDS011;4031;49.758;6.120;2023-03-01T04:43:34;5.00;;;4.55;;
7971;SDS011;4031;49.758;6.120;2023-03-01T04:46:01;8.10;;;6.07;;
7971;SDS011;4031;49.758;6.120;2023-03-01T04:48:29;6.35;;;4.88;;
7971;SDS011;4031;49.758;6.120;2023-03-01T04:50:56;5.38;;;4.47;;
7971;SDS011;4031;49.758;6.120;2023-03-01T04:53:24;4.15;;;3.85;;
7971;SDS011;4031;49.758;6.120;2023-03-01T04:55:49;5.70;;;4.67;;
7971;SDS011;4031;49.758;6.120;2023-03-01T04:58:15;6.87;;;5.10;;
7971;SDS011;4031;49.758;6.120;2023-03-01T05:00:41;6.73;;;5.27;;
7971;SDS011;4031;49.758;6.120;2023-03-01T05:03:07;10.37;;;5.00;;
7971;SDS011;4031;49.758;6.120;2023-03-01T05:05:37;2.75;;;2.33;;
7971;SDS011;4031;49.758;6.120;2023-03-01T05:08:04;7.50;;;5.75;;
7971;SDS011;4031;49.758;6.120;2023-03-01T05:10:32;8.32;;;5.50;;
7971;SDS011;4031;49.758;6.120;2023-03-01T05:13:01;10.35;;;6.43;;
7971;SDS011;4031;49.758;6.120;2023-03-01T05:15:29;5.35;;;3.72;;
7971;SDS011;4031;49.758;6.120;2023-03-01T05:17:57;8.52;;;6.93;;
7971;SDS011;4031;49.758;6.120;2023-03-01T05:20:24;9.82;;;5.97;;
7971;SDS011;4031;49.758;6.120;2023-03-01T05:22:51;12.18;;;6.78;;
7971;SDS011;4031;49.758;6.120;2023-03-01T05:25:23;11.80;;;5.95;;
7971;SDS011;4031;49.758;6.120;2023-03-01T05:27:50;8.63;;;5.50;;
7971;SDS011;4031;49.758;6.120;2023-03-01T05:30:16;7.85;;;6.50;;
7971;SDS011;4031;49.758;6.120;2023-03-01T05:32:47;6.18;;;5.40;;
7971;SDS011;4031;49.758;6.120;2023-03-01T05:35:20;8.48;;;6.35;;
7971;SDS011;4031;49.758;6.120;2023-03-01T05:37:47;12.70;;;7.65;;
7971;SDS011;4031;49.758;6.120;2023-03-01T05:40:15;11.20;;;6.75;;
7971;SDS011;4031;49.758;6.120;2023-03-01T05:42:51;14.60;;;6.55;;
7971;SDS011;4031;49.758;6.120;2023-03-01T05:45:20;13.02;;;8.25;;
7971;SDS011;4031;49.758;6.120;2023-03-01T05:47:48;9.68;;;8.30;;
7971;SDS011;4031;49.758;6.120;2023-03-01T05:52:46;4.78;;;4.15;;
7971;SDS011;4031;49.758;6.120;2023-03-01T05:55:14;3.83;;;3.15;;
7971;SDS011;4031;49.758;6.120;2023-03-01T05:57:45;6.13;;;4.85;;
7971;SDS011;4031;49.758;6.120;2023-03-01T06:00:11;7.07;;;4.07;;
7971;SDS011;4031;49.758;6.120;2023-03-01T06:02:38;5.18;;;4.50;;
7971;SDS011;4031;49.758;6.120;2023-03-01T06:05:05;5.68;;;4.65;;
7971;SDS011;4031;49.758;6.120;2023-03-01T06:07:32;7.38;;;5.90;;
7971;SDS011;4031;49.758;6.120;2023-03-01T06:09:58;3.83;;;2.63;;
7971;SDS011;4031;49.758;6.120;2023-03-01T06:12:24;6.17;;;4.20;;
7971;SDS011;4031;49.758;6.120;2023-03-01T06:14:49;4.80;;;4.17;;
7971;SDS011;4031;49.758;6.120;2023-03-01T06:17:15;4.27;;;2.57;;
7971;SDS011;4031;49.758;6.120;2023-03-01T06:19:41;4.00;;;3.40;;
7971;SDS011;4031;49.758;6.120;2023-03-01T06:22:06;4.83;;;3.33;;
7971;SDS011;4031;49.758;6.120;2023-03-01T06:24:33;10.98;;;6.30;;
7971;SDS011;4031;49.758;6.120;2023-03-01T06:26:59;14.50;;;6.05;;
7971;SDS011;4031;49.758;6.120;2023-03-01T06:29:25;6.80;;;5.30;;
7971;SDS011;4031;49.758;6.120;2023-03-01T06:31:51;6.45;;;4.30;;
7971;SDS011;4031;49.758;6.120;2023-03-01T06:34:16;7.97;;;6.50;;
7971;SDS011;4031;49.758;6.120;2023-03-01T06:36:42;3.80;;;3.50;;
7971;SDS011;4031;49.758;6.120;2023-03-01T06:39:08;4.87;;;4.00;;
7971;SDS011;4031;49.758;6.120;2023-03-01T06:41:34;7.03;;;6.23;;
7971;SDS011;4031;49.758;6.120;2023-03-01T06:43:59;5.40;;;4.10;;
7971;SDS011;4031;49.758;6.120;2023-03-01T06:46:25;9.83;;;6.27;;
7971;SDS011;4031;49.758;6.120;2023-03-01T06:48:51;6.70;;;5.87;;
7971;SDS011;4031;49.758;6.120;2023-03-01T06:51:17;4.97;;;4.53;;
7971;SDS011;4031;49.758;6.120;2023-03-01T06:53:42;4.43;;;3.40;;
7971;SDS011;4031;49.758;6.120;2023-03-01T06:56:08;2.13;;;1.70;;
7971;SDS011;4031;49.758;6.120;2023-03-01T06:58:34;8.20;;;5.43;;
7971;SDS011;4031;49.758;6.120;2023-03-01T07:00:59;4.47;;;3.40;;
7971;SDS011;4031;49.758;6.120;2023-03-01T07:03:30;4.75;;;3.80;;
7971;SDS011;4031;49.758;6.120;2023-03-01T07:05:56;5.43;;;3.57;;
7971;SDS011;4031;49.758;6.120;2023-03-01T07:08:22;6.33;;;4.63;;
7971;SDS011;4031;49.758;6.120;2023-03-01T07:10:47;2.57;;;2.07;;
7971;SDS011;4031;49.758;6.120;2023-03-01T07:13:13;8.57;;;6.23;;
7971;SDS011;4031;49.758;6.120;2023-03-01T07:15:39;8.93;;;6.27;;
7971;SDS011;4031;49.758;6.120;2023-03-01T07:18:05;2.28;;;2.00;;
7971;SDS011;4031;49.758;6.120;2023-03-01T07:20:31;8.50;;;6.47;;
7971;SDS011;4031;49.758;6.120;2023-03-01T07:22:56;14.40;;;8.20;;
7971;SDS011;4031;49.758;6.120;2023-03-01T07:25:23;11.55;;;7.22;;
7971;SDS011;4031;49.758;6.120;2023-03-01T07:27:52;10.27;;;6.75;;
7971;SDS011;4031;49.758;6.120;2023-03-01T07:30:19;7.00;;;5.95;;
7971;SDS011;4031;49.758;6.120;2023-03-01T07:32:46;8.57;;;5.75;;
7971;SDS011;4031;49.758;6.120;2023-03-01T07:35:11;9.90;;;7.07;;
7971;SDS011;4031;49.758;6.120;2023-03-01T07:37:37;7.23;;;4.80;;
7971;SDS011;4031;49.758;6.120;2023-03-01T07:40:03;8.67;;;5.67;;
7971;SDS011;4031;49.758;6.120;2023-03-01T07:42:30;10.88;;;8.38;;
7971;SDS011;4031;49.758;6.120;2023-03-01T07:44:55;13.63;;;7.27;;
7971;SDS011;4031;49.758;6.120;2023-03-01T07:47:21;13.73;;;7.73;;
7971;SDS011;4031;49.758;6.120;2023-03-01T07:49:47;7.80;;;6.30;;
7971;SDS011;4031;49.758;6.120;2023-03-01T07:52:12;7.37;;;5.00;;
7971;SDS011;4031;49.758;6.120;2023-03-01T07:54:38;4.30;;;3.67;;
7971;SDS011;4031;49.758;6.120;2023-03-01T07:57:04;7.13;;;5.57;;
7971;SDS011;4031;49.758;6.120;2023-03-01T07:59:30;8.00;;;4.77;;
7971;SDS011;4031;49.758;6.120;2023-03-01T08:01:56;9.63;;;5.90;;
7971;SDS011;4031;49.758;6.120;2023-03-01T08:04:22;14.80;;;8.70;;
7971;SDS011;4031;49.758;6.120;2023-03-01T08:06:50;12.57;;;8.90;;
7971;SDS011;4031;49.758;6.120;2023-03-01T08:09:16;7.37;;;3.03;;
7971;SDS011;4031;49.758;6.120;2023-03-01T08:11:42;9.43;;;5.97;;
7971;SDS011;4031;49.758;6.120;2023-03-01T08:14:08;11.10;;;9.10;;
7971;SDS011;4031;49.758;6.120;2023-03-01T08:16:35;11.47;;;7.07;;
7971;SDS011;4031;49.758;6.120;2023-03-01T08:19:04;10.83;;;7.40;;
7971;SDS011;4031;49.758;6.120;2023-03-01T08:21:35;8.33;;;5.83;;
7971;SDS011;4031;49.758;6.120;2023-03-01T08:24:02;15.50;;;8.17;;
7971;SDS011;4031;49.758;6.120;2023-03-01T08:26:29;8.50;;;5.93;;
7971;SDS011;4031;49.758;6.120;2023-03-01T08:28:55;9.40;;;6.27;;
7971;SDS011;4031;49.758;6.120;2023-03-01T08:33:59;11.20;;;7.83;;
7971;SDS011;4031;49.758;6.120;2023-03-01T08:36:27;10.37;;;4.07;;
7971;SDS011;4031;49.758;6.120;2023-03-01T08:38:55;14.40;;;10.40;;
7971;SDS011;4031;49.758;6.120;2023-03-01T08:41:21;7.87;;;5.03;;
7971;SDS011;4031;49.758;6.120;2023-03-01T08:43:47;20.20;;;10.57;;
7971;SDS011;4031;49.758;6.120;2023-03-01T08:46:13;18.87;;;11.53;;
7971;SDS011;4031;49.758;6.120;2023-03-01T08:48:39;13.47;;;10.90;;
7971;SDS011;4031;49.758;6.120;2023-03-01T08:51:08;12.13;;;9.50;;
7971;SDS011;4031;49.758;6.120;2023-03-01T08:53:36;10.73;;;7.33;;
7971;SDS011;4031;49.758;6.120;2023-03-01T08:56:02;15.67;;;11.70;;
7971;SDS011;4031;49.758;6.120;2023-03-01T08:58:29;16.30;;;8.83;;
7971;SDS011;4031;49.758;6.120;2023-03-01T09:00:55;16.67;;;12.10;;
7971;SDS011;4031;49.758;6.120;2023-03-01T09:03:21;16.20;;;9.70;;
7971;SDS011;4031;49.758;6.120;2023-03-01T09:05:48;14.80;;;9.00;;
7971;SDS011;4031;49.758;6.120;2023-03-01T09:08:15;18.70;;;11.30;;
7971;SDS011;4031;49.758;6.120;2023-03-01T09:10:42;12.90;;;8.50;;
7971;SDS011;4031;49.758;6.120;2023-03-01T09:13:07;16.57;;;10.97;;
7971;SDS011;4031;49.758;6.120;2023-03-01T09:15:35;8.97;;;7.50;;
7971;SDS011;4031;49.758;6.120;2023-03-01T09:18:02;17.77;;;11.73;;
7971;SDS011;4031;49.758;6.120;2023-03-01T09:20:30;15.87;;;11.03;;
7971;SDS011;4031;49.758;6.120;2023-03-01T09:22:56;16.07;;;10.67;;
7971;SDS011;4031;49.758;6.120;2023-03-01T09:25:23;14.83;;;11.00;;
7971;SDS011;4031;49.758;6.120;2023-03-01T09:27:52;17.23;;;12.53;;
7971;SDS011;4031;49.758;6.120;2023-03-01T09:30:19;17.30;;;10.50;;
7971;SDS011;4031;49.758;6.120;2023-03-01T09:32:45;13.43;;;9.40;;
7971;SDS011;4031;49.758;6.120;2023-03-01T09:35:11;18.00;;;10.63;;
7971;SDS011;4031;49.758;6.120;2023-03-01T09:37:38;13.07;;;8.57;;
7971;SDS011;4031;49.758;6.120;2023-03-01T09:40:10;13.10;;;9.60;;
7971;SDS011;4031;49.758;6.120;2023-03-01T09:42:47;11.20;;;7.10;;
7971;SDS011;4031;49.758;6.120;2023-03-01T09:45:29;15.23;;;10.37;;
7971;SDS011;4031;49.758;6.120;2023-03-01T09:48:00;12.10;;;10.00;;
7971;SDS011;4031;49.758;6.120;2023-03-01T09:50:32;13.93;;;8.33;;
7971;SDS011;4031;49.758;6.120;2023-03-01T09:53:18;15.67;;;11.83;;
7971;SDS011;4031;49.758;6.120;2023-03-01T09:55:52;13.90;;;11.10;;
7971;SDS011;4031;49.758;6.120;2023-03-01T10:03:59;18.63;;;11.50;;
7971;SDS011;4031;49.758;6.120;2023-03-01T10:07:05;20.00;;;11.30;;
7971;SDS011;4031;49.758;6.120;2023-03-01T10:09:39;17.80;;;11.00;;
7971;SDS011;4031;49.758;6.120;2023-03-01T10:12:09;14.10;;;10.23;;
7971;SDS011;4031;49.758;6.120;2023-03-01T10:17:24;17.87;;;10.90;;
7971;SDS011;4031;49.758;6.120;2023-03-01T10:19:58;15.07;;;8.50;;
7971;SDS011;4031;49.758;6.120;2023-03-01T10:22:49;12.93;;;9.77;;
7971;SDS011;4031;49.758;6.120;2023-03-01T10:25:28;14.20;;;10.50;;
7971;SDS011;4031;49.758;6.120;2023-03-01T10:28:06;11.40;;;8.87;;
7971;SDS011;4031;49.758;6.120;2023-03-01T10:30:57;17.70;;;11.40;;
7971;SDS011;4031;49.758;6.120;2023-03-01T10:33:28;16.80;;;11.93;;
7971;SDS011;4031;49.758;6.120;2023-03-01T10:35:57;18.07;;;12.33;;
7971;SDS011;4031;49.758;6.120;2023-03-01T10:38:23;17.67;;;11.90;;
7971;SDS011;4031;49.758;6.120;2023-03-01T10:40:53;14.40;;;11.00;;
7971;SDS011;4031;49.758;6.120;2023-03-01T10:43:43;15.47;;;13.20;;
7971;SDS011;4031;49.758;6.120;2023-03-01T10:46:26;16.20;;;11.60;;
7971;SDS011;4031;49.758;6.120;2023-03-01T10:49:12;17.70;;;13.37;;
7971;SDS011;4031;49.758;6.120;2023-03-01T10:51:46;17.60;;;12.30;;
7971;SDS011;4031;49.758;6.120;2023-03-01T10:54:25;13.73;;;10.87;;
7971;SDS011;4031;49.758;6.120;2023-03-01T10:56:55;15.37;;;11.50;;
7971;SDS011;4031;49.758;6.120;2023-03-01T11:04:55;12.47;;;10.70;;
7971;SDS011;4031;49.758;6.120;2023-03-01T11:07:47;12.60;;;11.03;;
7971;SDS011;4031;49.758;6.120;2023-03-01T11:10:24;14.70;;;12.90;;
7971;SDS011;4031;49.758;6.120;2023-03-01T11:16:02;12.93;;;10.67;;
7971;SDS011;4031;49.758;6.120;2023-03-01T11:18:32;16.13;;;11.27;;
7971;SDS011;4031;49.758;6.120;2023-03-01T11:20:59;17.00;;;12.90;;
7971;SDS011;4031;49.758;6.120;2023-03-01T11:23:27;15.33;;;12.20;;
7971;SDS011;4031;49.758;6.120;2023-03-01T11:25:55;18.23;;;12.93;;
7971;SDS011;4031;49.758;6.120;2023-03-01T11:28:23;16.83;;;11.83;;
7971;SDS011;4031;49.758;6.120;2023-03-01T11:30:54;17.50;;;12.03;;
7971;SDS011;4031;49.758;6.120;2023-03-01T11:36:26;14.13;;;11.20;;
7971;SDS011;4031;49.758;6.120;2023-03-01T11:39:24;13.97;;;12.00;;
7971;SDS011;4031;49.758;6.120;2023-03-01T11:44:59;16.20;;;12.20;;
7971;SDS011;4031;49.758;6.120;2023-03-01T11:50:39;5.97;;;4.60;;
7971;SDS011;4031;49.758;6.120;2023-03-01T11:53:26;15.67;;;12.10;;
7971;SDS011;4031;49.758;6.120;2023-03-01T11:56:02;13.90;;;11.57;;
7971;SDS011;4031;49.758;6.120;2023-03-01T12:04:21;15.23;;;12.13;;
7971;SDS011;4031;49.758;6.120;2023-03-01T12:16:06;18.30;;;12.17;;
7971;SDS011;4031;49.758;6.120;2023-03-01T12:21:42;14.77;;;11.33;;
7971;SDS011;4031;49.758;6.120;2023-03-01T12:29:51;12.67;;;11.33;;
7971;SDS011;4031;49.758;6.120;2023-03-01T12:32:28;6.33;;;5.13;;
7971;SDS011;4031;49.758;6.120;2023-03-01T12:38:06;16.53;;;12.83;;
7971;SDS011;4031;49.758;6.120;2023-03-01T12:49:51;13.77;;;11.07;;
7971;SDS011;4031;49.758;6.120;2023-03-01T12:52:44;14.57;;;11.60;;
7971;SDS011;4031;49.758;6.120;2023-03-01T12:55:34;20.17;;;12.37;;
7971;SDS011;4031;49.758;6.120;2023-03-01T12:58:19;13.07;;;11.17;;
7971;SDS011;4031;49.758;6.120;2023-03-01T13:01:14;15.27;;;11.83;;
7971;SDS011;4031;49.758;6.120;2023-03-01T13:06:40;13.50;;;10.20;;
7971;SDS011;4031;49.758;6.120;2023-03-01T13:15:24;15.30;;;11.13;;
7971;SDS011;4031;49.758;6.120;2023-03-01T13:17:56;12.93;;;10.93;;
7971;SDS011;4031;49.758;6.120;2023-03-01T13:20:49;14.70;;;12.87;;
7971;SDS011;4031;49.758;6.120;2023-03-01T13:41:57;12.77;;;10.80;;
7971;SDS011;4031;49.758;6.120;2023-03-01T13:44:37;13.87;;;10.63;;
7971;SDS011;4031;49.758;6.120;2023-03-01T13:55:50;15.33;;;10.93;;
7971;SDS011;4031;49.758;6.120;2023-03-01T13:58:03;13.93;;;10.40;;
7971;SDS011;4031;49.758;6.120;2023-03-01T14:01:02;12.20;;;10.00;;
7971;SDS011;4031;49.758;6.120;2023-03-01T14:03:30;13.97;;;10.90;;
7971;SDS011;4031;49.758;6.120;2023-03-01T14:06:08;17.00;;;11.40;;
7971;SDS011;4031;49.758;6.120;2023-03-01T14:08:42;11.57;;;8.50;;
7971;SDS011;4031;49.758;6.120;2023-03-01T14:17:17;15.60;;;9.60;;
7971;SDS011;4031;49.758;6.120;2023-03-01T14:22:59;15.37;;;10.77;;
7971;SDS011;4031;49.758;6.120;2023-03-01T14:25:35;11.10;;;9.03;;
7971;SDS011;4031;49.758;6.120;2023-03-01T14:28:23;13.87;;;10.43;;
7971;SDS011;4031;49.758;6.120;2023-03-01T14:30:53;14.20;;;11.23;;
7971;SDS011;4031;49.758;6.120;2023-03-01T14:35:53;13.27;;;9.70;;
7971;SDS011;4031;49.758;6.120;2023-03-01T14:38:40;10.53;;;9.50;;
7971;SDS011;4031;49.758;6.120;2023-03-01T14:41:10;11.43;;;10.20;;
7971;SDS011;4031;49.758;6.120;2023-03-01T14:43:43;10.27;;;8.20;;
7971;SDS011;4031;49.758;6.120;2023-03-01T14:48:50;11.53;;;8.97;;
7971;SDS011;4031;49.758;6.120;2023-03-01T14:51:18;9.47;;;7.07;;
7971;SDS011;4031;49.758;6.120;2023-03-01T14:53:44;9.70;;;7.53;;
7971;SDS011;4031;49.758;6.120;2023-03-01T14:56:13;10.97;;;9.53;;
7971;SDS011;4031;49.758;6.120;2023-03-01T14:58:44;11.40;;;9.57;;
7971;SDS011;4031;49.758;6.120;2023-03-01T15:01:13;16.30;;;10.53;;
7971;SDS011;4031;49.758;6.120;2023-03-01T15:03:42;8.90;;;6.63;;
7971;SDS011;4031;49.758;6.120;2023-03-01T15:06:11;8.57;;;6.83;;
7971;SDS011;4031;49.758;6.120;2023-03-01T15:08:44;10.60;;;9.30;;
7971;SDS011;4031;49.758;6.120;2023-03-01T15:13:50;10.77;;;9.67;;
7971;SDS011;4031;49.758;6.120;2023-03-01T15:16:18;11.17;;;9.70;;
7971;SDS011;4031;49.758;6.120;2023-03-01T15:18:49;12.00;;;9.27;;
7971;SDS011;4031;49.758;6.120;2023-03-01T15:21:22;10.77;;;9.00;;
7971;SDS011;4031;49.758;6.120;2023-03-01T15:23:59;9.37;;;7.40;;
7971;SDS011;4031;49.758;6.120;2023-03-01T15:26:43;11.33;;;8.97;;
7971;SDS011;4031;49.758;6.120;2023-03-01T15:29:26;15.10;;;9.53;;
7971;SDS011;4031;49.758;6.120;2023-03-01T15:31:56;13.77;;;9.97;;
7971;SDS011;4031;49.758;6.120;2023-03-01T15:34:52;11.43;;;9.70;;
7971;SDS011;4031;49.758;6.120;2023-03-01T15:42:56;11.47;;;9.17;;
7971;SDS011;4031;49.758;6.120;2023-03-01T15:45:24;12.73;;;9.10;;
7971;SDS011;4031;49.758;6.120;2023-03-01T15:47:57;9.77;;;8.57;;
7971;SDS011;4031;49.758;6.120;2023-03-01T15:50:29;12.30;;;8.67;;
7971;SDS011;4031;49.758;6.120;2023-03-01T15:52:59;12.70;;;8.70;;
7971;SDS011;4031;49.758;6.120;2023-03-01T15:55:36;10.60;;;8.93;;
7971;SDS011;4031;49.758;6.120;2023-03-01T15:58:18;9.53;;;8.17;;
7971;SDS011;4031;49.758;6.120;2023-03-01T16:00:49;12.90;;;7.97;;
7971;SDS011;4031;49.758;6.120;2023-03-01T16:03:20;13.20;;;7.50;;
7971;SDS011;4031;49.758;6.120;2023-03-01T16:05:48;10.97;;;8.07;;
7971;SDS011;4031;49.758;6.120;2023-03-01T16:08:15;11.27;;;8.33;;
7971;SDS011;4031;49.758;6.120;2023-03-01T16:10:42;14.80;;;9.47;;
7971;SDS011;4031;49.758;6.120;2023-03-01T16:13:09;11.73;;;8.20;;
7971;SDS011;4031;49.758;6.120;2023-03-01T16:15:38;9.57;;;7.93;;
7971;SDS011;4031;49.758;6.120;2023-03-01T16:18:05;10.03;;;7.70;;
7971;SDS011;4031;49.758;6.120;2023-03-01T16:20:33;8.20;;;6.80;;
7971;SDS011;4031;49.758;6.120;2023-03-01T16:22:59;10.33;;;7.20;;
7971;SDS011;4031;49.758;6.120;2023-03-01T16:25:27;9.43;;;8.07;;
7971;SDS011;4031;49.758;6.120;2023-03-01T16:27:54;9.00;;;7.10;;
7971;SDS011;4031;49.758;6.120;2023-03-01T16:30:21;9.00;;;5.80;;
7971;SDS011;4031;49.758;6.120;2023-03-01T16:32:48;10.90;;;7.93;;
7971;SDS011;4031;49.758;6.120;2023-03-01T16:35:16;10.93;;;7.00;;
7971;SDS011;4031;49.758;6.120;2023-03-01T16:37:45;13.43;;;9.43;;
7971;SDS011;4031;49.758;6.120;2023-03-01T16:40:16;13.73;;;9.40;;
7971;SDS011;4031;49.758;6.120;2023-03-01T16:42:49;10.13;;;7.90;;
7971;SDS011;4031;49.758;6.120;2023-03-01T16:45:16;12.93;;;7.80;;
7971;SDS011;4031;49.758;6.120;2023-03-01T16:47:42;11.10;;;8.90;;
7971;SDS011;4031;49.758;6.120;2023-03-01T16:50:08;9.77;;;7.77;;
7971;SDS011;4031;49.758;6.120;2023-03-01T16:52:35;10.60;;;7.10;;
7971;SDS011;4031;49.758;6.120;2023-03-01T16:55:02;10.80;;;7.20;;
7971;SDS011;4031;49.758;6.120;2023-03-01T16:57:30;8.73;;;6.37;;
7971;SDS011;4031;49.758;6.120;2023-03-01T16:59:58;8.57;;;7.53;;
7971;SDS011;4031;49.758;6.120;2023-03-01T17:02:24;10.13;;;7.83;;
7971;SDS011;4031;49.758;6.120;2023-03-01T17:04:51;10.80;;;7.70;;
7971;SDS011;4031;49.758;6.120;2023-03-01T17:07:18;10.10;;;6.83;;
7971;SDS011;4031;49.758;6.120;2023-03-01T17:09:44;6.23;;;4.93;;
7971;SDS011;4031;49.758;6.120;2023-03-01T17:12:14;10.90;;;7.83;;
7971;SDS011;4031;49.758;6.120;2023-03-01T17:14:40;13.77;;;9.43;;
7971;SDS011;4031;49.758;6.120;2023-03-01T17:17:08;10.03;;;6.27;;
7971;SDS011;4031;49.758;6.120;2023-03-01T17:19:35;11.73;;;8.17;;
7971;SDS011;4031;49.758;6.120;2023-03-01T17:22:08;8.93;;;5.33;;
7971;SDS011;4031;49.758;6.120;2023-03-01T17:24:38;11.90;;;8.10;;
7971;SDS011;4031;49.758;6.120;2023-03-01T17:27:06;10.83;;;7.20;;
7971;SDS011;4031;49.758;6.120;2023-03-01T17:29:32;10.53;;;7.43;;
7971;SDS011;4031;49.758;6.120;2023-03-01T17:31:59;9.07;;;7.60;;
7971;SDS011;4031;49.758;6.120;2023-03-01T17:34:25;10.50;;;7.60;;
7971;SDS011;4031;49.758;6.120;2023-03-01T17:36:51;8.90;;;7.23;;
7971;SDS011;4031;49.758;6.120;2023-03-01T17:39:18;10.23;;;7.30;;
7971;SDS011;4031;49.758;6.120;2023-03-01T17:41:49;12.17;;;8.40;;
7971;SDS011;4031;49.758;6.120;2023-03-01T17:44:18;11.07;;;8.10;;